Time;durP1;ratioP1;P1;durP2;ratioP2;P2;SDS_P1;SDS_P2;PMS_P1;PMS_P2;Temp;Humidity;BMP_temperature;BMP_pressure;BME280_temperature;BME280_humidity;BME280_pressure;Samples;Min_cycle;Max_cycle;Signal;HPM_P1;HPM_P2
2021/12/13 00:02:05;;;;;;;2.90;1.13;;;10.40;99.90;;;;;;5080756;28;20055;-80
2021/12/13 00:04:48;;;;;;;0.28;0.28;;;10.40;99.90;;;;;;5080641;28;20055;-80
2021/12/13 00:07:18;;;;;;;0.47;0.47;;;10.40;99.90;;;;;;5080115;28;20096;-80
2021/12/13 00:09:49;;;;;;;4.72;1.80;;;10.40;99.90;;;;;;5097539;28;20044;-80
2021/12/13 00:12:21;;;;;;;0.55;0.55;;;10.40;99.90;;;;;;5080637;28;20437;-80
2021/12/13 00:14:50;;;;;;;0.57;0.10;;;10.40;99.90;;;;;;5097394;28;20395;-80
2021/12/13 00:17:23;;;;;;;0.30;0.30;;;10.40;99.90;;;;;;5097383;28;20044;-80
2021/12/13 00:19:55;;;;;;;0.47;0.47;;;10.40;99.90;;;;;;5097441;28;20047;-80
2021/12/13 00:22:24;;;;;;;0.80;0.47;;;10.40;99.90;;;;;;5080395;28;20504;-80
2021/12/13 00:24:52;;;;;;;2.60;0.47;;;10.40;99.90;;;;;;5097452;28;20466;-80
2021/12/13 00:27:27;;;;;;;2.17;1.15;;;10.40;99.90;;;;;;5079959;28;20039;-80
2021/12/13 00:30:00;;;;;;;2.78;0.50;;;10.40;99.90;;;;;;5097587;28;20044;-80
2021/12/13 00:32:39;;;;;;;0.28;0.10;;;10.40;99.90;;;;;;5097652;28;20040;-80
2021/12/13 00:35:13;;;;;;;1.25;0.50;;;10.40;99.90;;;;;;5080507;28;20136;-80
2021/12/13 00:37:45;;;;;;;0.27;0.27;;;10.40;99.90;;;;;;5080040;28;20537;-80
2021/12/13 00:40:32;;;;;;;0.10;0.10;;;10.40;99.90;;;;;;5080470;28;20792;-80
2021/12/13 00:43:10;;;;;;;0.40;0.38;;;10.40;99.90;;;;;;5080023;28;20043;-80
2021/12/13 00:45:40;;;;;;;2.28;0.73;;;10.40;99.90;;;;;;5079701;28;20044;-80
2021/12/13 00:48:07;;;;;;;0.35;0.28;;;10.50;99.90;;;;;;5096524;28;20136;-80
2021/12/13 00:51:01;;;;;;;0.20;0.20;;;10.40;99.90;;;;;;5096418;28;20478;-80
2021/12/13 00:53:32;;;;;;;0.13;0.13;;;10.40;99.90;;;;;;5079683;28;20402;-80
2021/12/13 00:55:59;;;;;;;0.30;0.30;;;10.50;99.90;;;;;;5096733;28;20548;-80
2021/12/13 00:58:25;;;;;;;0.90;0.50;;;10.40;99.90;;;;;;5079496;28;20063;-80
2021/12/13 01:01:01;;;;;;;0.98;0.15;;;10.40;99.90;;;;;;5079313;28;20586;-80
2021/12/13 01:03:40;;;;;;;1.40;0.57;;;10.40;99.90;;;;;;5079621;28;20040;-80
2021/12/13 01:06:24;;;;;;;0.20;0.20;;;10.50;99.90;;;;;;5079409;28;20180;-80
2021/12/13 01:09:41;;;;;;;0.73;0.27;;;10.40;99.90;;;;;;5096546;28;20051;-80
2021/12/13 01:12:12;;;;;;;0.20;0.13;;;10.40;99.90;;;;;;5097304;28;20059;-80
2021/12/13 01:14:57;;;;;;;5.07;0.95;;;10.40;99.90;;;;;;5079882;28;20411;-80
2021/12/13 01:20:24;;;;;;;0.43;0.13;;;10.50;99.90;;;;;;5096644;28;20127;-80
2021/12/13 01:22:55;;;;;;;0.08;0.00;;;10.40;99.90;;;;;;5079332;28;20051;-80
2021/12/13 01:25:47;;;;;;;0.90;0.20;;;10.40;99.90;;;;;;5096110;28;20408;-80
2021/12/13 01:28:26;;;;;;;0.20;0.20;;;10.40;99.90;;;;;;5096131;28;20054;-80
2021/12/13 01:31:07;;;;;;;0.32;0.32;;;10.40;99.90;;;;;;5095984;28;20040;-80
2021/12/13 01:33:33;;;;;;;0.08;0.08;;;10.40;99.90;;;;;;5079330;28;20086;-80
2021/12/13 01:36:03;;;;;;;0.20;0.20;;;10.40;99.90;;;;;;5079091;28;20105;-80
2021/12/13 01:38:45;;;;;;;0.20;0.13;;;10.50;99.90;;;;;;5096350;28;20098;-80
2021/12/13 01:41:18;;;;;;;0.65;0.15;;;10.40;99.90;;;;;;5096944;28;20398;-80
2021/12/13 01:43:48;;;;;;;1.30;0.57;;;10.40;99.90;;;;;;5079171;28;20146;-80
2021/12/13 01:46:16;;;;;;;0.32;0.32;;;10.50;99.90;;;;;;5079550;28;20520;-81
2021/12/13 01:48:45;;;;;;;0.10;0.10;;;10.50;99.90;;;;;;5098189;28;20048;-81
2021/12/13 01:51:15;;;;;;;0.73;0.43;;;10.40;99.90;;;;;;5100279;28;20094;-81
2021/12/13 01:53:46;;;;;;;1.20;0.88;;;10.50;99.90;;;;;;5083751;28;20046;-81
2021/12/13 01:56:41;;;;;;;0.10;0.10;;;10.50;99.90;;;;;;5100483;28;20402;-81
2021/12/13 01:59:28;;;;;;;0.67;0.50;;;10.50;99.90;;;;;;5100469;28;20086;-81
2021/12/13 02:02:16;;;;;;;0.25;0.25;;;10.40;99.90;;;;;;5083763;28;20281;-81
2021/12/13 02:04:43;;;;;;;0.10;0.10;;;10.40;99.90;;;;;;5082600;28;20055;-81
2021/12/13 02:07:10;;;;;;;0.88;0.22;;;10.50;99.90;;;;;;5100020;28;20101;-81
2021/12/13 02:09:42;;;;;;;0.00;0.00;;;10.50;99.90;;;;;;5083836;28;20066;-81
2021/12/13 02:12:14;;;;;;;0.75;0.60;;;10.40;99.90;;;;;;5083495;28;20044;-81
2021/12/13 02:17:42;;;;;;;0.73;0.22;;;10.40;99.90;;;;;;5100618;28;20074;-81
2021/12/13 02:20:21;;;;;;;0.10;0.10;;;10.50;99.90;;;;;;5100011;28;20051;-80
2021/12/13 02:22:52;;;;;;;3.42;0.43;;;10.40;99.90;;;;;;5083381;28;20096;-81
2021/12/13 02:25:40;;;;;;;0.30;0.20;;;10.40;99.90;;;;;;5082197;28;20560;-81
2021/12/13 02:28:22;;;;;;;0.17;0.10;;;10.40;99.90;;;;;;5082425;28;20059;-80
2021/12/13 02:31:00;;;;;;;0.20;0.10;;;10.40;99.90;;;;;;5082432;28;20084;-80
2021/12/13 02:33:49;;;;;;;0.15;0.15;;;10.40;99.90;;;;;;5099368;28;20043;-80
2021/12/13 02:36:23;;;;;;;2.45;0.10;;;10.40;99.90;;;;;;5082383;28;20062;-81
2021/12/13 02:38:53;;;;;;;0.00;0.00;;;10.40;99.90;;;;;;5082089;28;20379;-81
2021/12/13 02:41:23;;;;;;;0.10;0.10;;;10.40;99.90;;;;;;5082222;28;20525;-80
2021/12/13 02:43:53;;;;;;;0.57;0.57;;;10.40;99.90;;;;;;5099167;28;20040;-80
2021/12/13 02:46:19;;;;;;;0.10;0.10;;;10.40;99.90;;;;;;5098985;28;20043;-80
2021/12/13 02:48:58;;;;;;;0.43;0.25;;;10.30;99.90;;;;;;5098769;28;20048;-81
2021/12/13 02:51:27;;;;;;;0.10;0.10;;;10.40;99.90;;;;;;5099614;28;20455;-80
2021/12/13 02:54:16;;;;;;;1.35;1.25;;;10.40;99.90;;;;;;5082443;28;20056;-81
2021/12/13 02:57:11;;;;;;;0.40;0.40;;;10.40;99.90;;;;;;5082407;28;20141;-80
2021/12/13 02:59:43;;;;;;;3.40;0.80;;;10.40;99.90;;;;;;5000281;28;20056;-81
2021/12/13 03:02:32;;;;;;;0.45;0.45;;;10.40;99.90;;;;;;5016501;28;20560;-81
2021/12/13 03:05:01;;;;;;;0.10;0.10;;;10.40;99.90;;;;;;5001203;28;20648;-80
2021/12/13 03:07:31;;;;;;;0.38;0.30;;;10.40;99.90;;;;;;5017314;28;20555;-81
2021/12/13 03:09:59;;;;;;;0.00;0.00;;;10.30;99.90;;;;;;5017255;28;20089;-81
2021/12/13 03:12:27;;;;;;;0.30;0.30;;;10.30;99.90;;;;;;5018599;28;20501;-81
2021/12/13 03:15:00;;;;;;;0.13;0.03;;;10.40;99.90;;;;;;5017637;28;20045;-81
2021/12/13 03:17:34;;;;;;;0.05;0.05;;;10.30;99.90;;;;;;5018396;28;20140;-80
2021/12/13 03:20:14;;;;;;;0.10;0.10;;;10.40;99.90;;;;;;5017148;28;20065;-81
2021/12/13 03:23:01;;;;;;;0.05;0.00;;;10.30;99.90;;;;;;5017860;28;20041;-80
2021/12/13 03:25:47;;;;;;;0.85;0.52;;;10.30;99.90;;;;;;5017373;28;20045;-80
2021/12/13 03:28:27;;;;;;;0.00;0.00;;;10.40;99.90;;;;;;4978399;28;20542;-80
2021/12/13 03:31:10;;;;;;;0.10;0.10;;;10.30;99.90;;;;;;4978344;28;20506;-80
2021/12/13 03:34:01;;;;;;;0.22;0.00;;;10.30;99.90;;;;;;4962388;28;20070;-81
2021/12/13 03:36:42;;;;;;;0.80;0.00;;;10.20;99.90;;;;;;4987355;28;20076;-80
2021/12/13 03:39:10;;;;;;;0.32;0.10;;;10.20;99.90;;;;;;5036909;28;20045;-80
2021/12/13 03:41:40;;;;;;;0.17;0.17;;;10.20;99.90;;;;;;5037670;28;20048;-80
2021/12/13 03:44:11;;;;;;;0.20;0.20;;;10.20;99.90;;;;;;5036395;28;20083;-80
2021/12/13 03:46:40;;;;;;;0.25;0.25;;;10.20;99.90;;;;;;5036709;28;20049;-80
2021/12/13 03:49:08;;;;;;;0.00;0.00;;;10.10;99.90;;;;;;5020064;28;20049;-80
2021/12/13 03:51:38;;;;;;;0.08;0.08;;;10.10;99.90;;;;;;5019984;28;20057;-80
2021/12/13 03:54:07;;;;;;;0.08;0.00;;;10.10;99.90;;;;;;5036199;28;20606;-80
2021/12/13 03:56:37;;;;;;;0.00;0.00;;;10.10;99.90;;;;;;5020101;28;20075;-80
2021/12/13 03:59:16;;;;;;;0.00;0.00;;;10.00;99.90;;;;;;5036567;28;20110;-80
2021/12/13 04:01:57;;;;;;;0.00;0.00;;;10.00;99.90;;;;;;5036962;28;20045;-80
2021/12/13 04:04:33;;;;;;;0.10;0.10;;;10.00;99.90;;;;;;5027898;28;20458;-81
2021/12/13 04:07:12;;;;;;;0.10;0.00;;;10.00;99.90;;;;;;5081068;28;20054;-81
2021/12/13 04:09:42;;;;;;;0.03;0.03;;;10.00;99.90;;;;;;5080769;28;20055;-81
2021/12/13 04:12:09;;;;;;;0.00;0.00;;;10.00;99.90;;;;;;5079920;28;20425;-81
2021/12/13 04:14:42;;;;;;;0.00;0.00;;;9.90;99.90;;;;;;5080383;28;20103;-81
2021/12/13 04:17:23;;;;;;;0.00;0.00;;;9.90;99.90;;;;;;5097862;28;20043;-81
2021/12/13 04:19:59;;;;;;;0.10;0.10;;;9.90;99.90;;;;;;5080454;28;20073;-81
2021/12/13 04:22:32;;;;;;;0.00;0.00;;;9.90;99.90;;;;;;5080384;28;20044;-80
2021/12/13 04:25:07;;;;;;;0.00;0.00;;;9.90;99.90;;;;;;5097474;28;20050;-81
2021/12/13 04:27:38;;;;;;;0.00;0.00;;;9.90;99.90;;;;;;5080024;28;20073;-81
2021/12/13 04:30:14;;;;;;;0.00;0.00;;;9.90;99.90;;;;;;5097497;28;20169;-81
2021/12/13 04:32:46;;;;;;;0.00;0.00;;;9.90;99.90;;;;;;5097686;28;20051;-81
2021/12/13 04:35:13;;;;;;;0.00;0.00;;;9.80;99.90;;;;;;5080844;28;20054;-81
2021/12/13 04:37:45;;;;;;;0.00;0.00;;;9.80;99.90;;;;;;5080122;28;20066;-81
2021/12/13 04:40:21;;;;;;;0.00;0.00;;;9.80;99.90;;;;;;5080136;28;20055;-81
2021/12/13 04:43:04;;;;;;;0.10;0.00;;;9.80;99.90;;;;;;5080584;28;20040;-81
2021/12/13 04:45:32;;;;;;;0.00;0.00;;;9.80;99.90;;;;;;5080080;28;20494;-81
2021/12/13 04:48:15;;;;;;;0.00;0.00;;;9.80;99.90;;;;;;5080454;28;20075;-81
2021/12/13 04:50:49;;;;;;;0.00;0.00;;;9.70;99.90;;;;;;5097163;28;20131;-81
2021/12/13 04:53:22;;;;;;;0.00;0.00;;;9.70;99.90;;;;;;5079951;28;20044;-81
2021/12/13 04:55:48;;;;;;;0.00;0.00;;;9.80;99.90;;;;;;5097124;28;20057;-82
2021/12/13 04:58:17;;;;;;;0.98;0.00;;;9.70;99.90;;;;;;5096938;28;20053;-81
2021/12/13 05:00:49;;;;;;;0.00;0.00;;;9.70;99.90;;;;;;5080252;28;20189;-81
2021/12/13 05:03:18;;;;;;;0.00;0.00;;;9.70;99.90;;;;;;5080294;28;20050;-81
2021/12/13 05:05:45;;;;;;;0.00;0.00;;;9.70;99.90;;;;;;5080195;28;20056;-82
2021/12/13 05:08:14;;;;;;;0.03;0.03;;;9.60;99.90;;;;;;5080027;28;20112;-81
2021/12/13 05:10:44;;;;;;;0.00;0.00;;;9.70;99.90;;;;;;5097660;28;20050;-81
2021/12/13 05:13:14;;;;;;;0.00;0.00;;;9.70;99.90;;;;;;5080499;28;20112;-81
2021/12/13 05:15:43;;;;;;;0.00;0.00;;;9.60;99.90;;;;;;5097416;28;20547;-81
2021/12/13 05:18:22;;;;;;;0.00;0.00;;;9.70;99.90;;;;;;5096617;28;20433;-81
2021/12/13 05:20:55;;;;;;;0.32;0.32;;;9.70;99.90;;;;;;5079875;28;20471;-81
2021/12/13 05:23:22;;;;;;;0.98;0.10;;;9.70;99.90;;;;;;5079320;28;20094;-81
2021/12/13 05:25:55;;;;;;;0.22;0.00;;;9.70;99.90;;;;;;5096458;28;20040;-81
2021/12/13 05:28:36;;;;;;;0.88;0.30;;;9.60;99.90;;;;;;5096759;28;20104;-81
2021/12/13 05:31:11;;;;;;;0.30;0.28;;;9.70;99.90;;;;;;5079741;28;20081;-81
2021/12/13 05:33:40;;;;;;;0.10;0.10;;;9.60;99.90;;;;;;5096822;28;20078;-81
2021/12/13 05:36:09;;;;;;;0.40;0.40;;;9.60;99.90;;;;;;5096278;28;20055;-81
2021/12/13 05:38:45;;;;;;;0.00;0.00;;;9.70;99.90;;;;;;5096199;28;20056;-81
2021/12/13 05:41:20;;;;;;;0.20;0.20;;;9.70;99.90;;;;;;5079891;28;20437;-81
2021/12/13 05:43:50;;;;;;;0.03;0.03;;;9.60;99.90;;;;;;5079389;28;20116;-81
2021/12/13 05:46:24;;;;;;;0.00;0.00;;;9.60;99.90;;;;;;5079610;28;20062;-81
2021/12/13 05:48:53;;;;;;;0.70;0.30;;;9.60;99.90;;;;;;5079657;28;20048;-81
2021/12/13 05:51:22;;;;;;;0.00;0.00;;;9.50;99.90;;;;;;5079435;28;20051;-81
2021/12/13 05:54:13;;;;;;;0.20;0.20;;;9.60;99.90;;;;;;5096111;28;20054;-81
2021/12/13 05:56:44;;;;;;;1.23;0.20;;;9.60;99.90;;;;;;5079881;28;20105;-81
2021/12/13 05:59:30;;;;;;;0.10;0.10;;;9.60;99.90;;;;;;5079597;28;20092;-81
2021/12/13 06:02:05;;;;;;;0.45;0.38;;;9.60;99.90;;;;;;5079859;28;20083;-81
2021/12/13 06:04:45;;;;;;;0.35;0.13;;;9.60;99.90;;;;;;5079276;28;20101;-81
2021/12/13 06:07:30;;;;;;;0.08;0.08;;;9.60;99.90;;;;;;5079199;28;20044;-81
2021/12/13 06:10:16;;;;;;;0.00;0.00;;;9.60;99.90;;;;;;5079302;28;20043;-81
2021/12/13 06:12:57;;;;;;;0.90;0.82;;;9.60;99.90;;;;;;5078955;28;20044;-81
2021/12/13 06:15:33;;;;;;;0.60;0.60;;;9.60;99.90;;;;;;5095936;28;20043;-81
2021/12/13 06:18:01;;;;;;;1.33;0.30;;;9.60;99.90;;;;;;5079162;28;20055;-81
2021/12/13 06:20:48;;;;;;;0.03;0.03;;;9.60;99.90;;;;;;5079114;28;20039;-82
2021/12/13 06:23:22;;;;;;;0.15;0.15;;;9.60;99.90;;;;;;5096192;28;20044;-82
2021/12/13 06:25:53;;;;;;;0.40;0.40;;;9.60;99.90;;;;;;5078813;28;20047;-82
2021/12/13 06:28:32;;;;;;;0.20;0.20;;;9.60;99.90;;;;;;5096570;28;20052;-82
2021/12/13 06:30:58;;;;;;;0.85;0.85;;;9.60;99.90;;;;;;5079091;28;20039;-82
2021/12/13 06:33:25;;;;;;;2.17;0.65;;;9.60;99.90;;;;;;5078977;28;20100;-82
2021/12/13 06:35:54;;;;;;;0.25;0.25;;;9.60;99.90;;;;;;5082307;28;20039;-82
2021/12/13 06:38:20;;;;;;;0.30;0.30;;;9.60;99.90;;;;;;5082673;28;20406;-82
2021/12/13 06:41:13;;;;;;;0.60;0.43;;;9.60;99.90;;;;;;5100062;28;20071;-82
2021/12/13 06:44:00;;;;;;;0.15;0.15;;;9.60;99.90;;;;;;5082710;28;20495;-82
2021/12/13 06:46:25;;;;;;;0.13;0.13;;;9.60;99.90;;;;;;5100467;28;20047;-82
2021/12/13 06:48:59;;;;;;;0.82;0.82;;;9.60;99.90;;;;;;5099872;28;20051;-82
2021/12/13 06:51:48;;;;;;;0.05;0.05;;;9.60;99.90;;;;;;5099916;28;20047;-82
2021/12/13 06:54:19;;;;;;;0.10;0.08;;;9.60;99.90;;;;;;5083156;28;20402;-82
2021/12/13 06:56:57;;;;;;;0.10;0.10;;;9.60;99.90;;;;;;5100041;28;20058;-82
2021/12/13 06:59:24;;;;;;;1.75;0.95;;;9.60;99.90;;;;;;5083357;28;20519;-82
2021/12/13 07:02:08;;;;;;;0.30;0.30;;;9.60;99.90;;;;;;5082674;28;20043;-82
2021/12/13 07:04:53;;;;;;;0.25;0.25;;;9.60;99.90;;;;;;5083068;28;20135;-82
2021/12/13 07:07:22;;;;;;;4.28;0.63;;;9.60;99.90;;;;;;5099438;28;20130;-83
2021/12/13 07:09:55;;;;;;;2.92;0.40;;;9.60;99.90;;;;;;5082588;28;20059;-83
2021/12/13 07:12:22;;;;;;;0.13;0.13;;;9.60;99.90;;;;;;5082909;28;20081;-83
2021/12/13 07:14:49;;;;;;;0.40;0.40;;;9.60;99.90;;;;;;5082408;28;20558;-83
2021/12/13 07:17:33;;;;;;;0.88;0.65;;;9.60;99.90;;;;;;5082561;28;20044;-84
2021/12/13 07:20:01;;;;;;;1.60;0.57;;;9.60;99.90;;;;;;5099819;28;20047;-83
2021/12/13 07:22:30;;;;;;;0.15;0.05;;;9.50;99.90;;;;;;5082508;28;20278;-83
2021/12/13 07:25:11;;;;;;;0.10;0.10;;;9.50;99.90;;;;;;5099491;28;20079;-83
2021/12/13 07:27:49;;;;;;;0.00;0.00;;;9.60;99.90;;;;;;5082173;28;20048;-83
2021/12/13 07:30:19;;;;;;;0.20;0.20;;;9.60;99.90;;;;;;5082408;28;20075;-83
2021/12/13 07:32:58;;;;;;;0.10;0.10;;;9.60;99.90;;;;;;5082096;28;20077;-83
2021/12/13 07:35:32;;;;;;;1.55;0.40;;;9.60;99.90;;;;;;5081422;28;20059;-83
2021/12/13 07:37:58;;;;;;;0.10;0.10;;;9.60;99.90;;;;;;5081654;28;20056;-83
2021/12/13 07:40:35;;;;;;;1.23;0.65;;;9.60;99.90;;;;;;5081526;28;20342;-83
2021/12/13 07:43:22;;;;;;;0.00;0.00;;;9.50;99.90;;;;;;5098827;28;20506;-83
2021/12/13 07:46:02;;;;;;;0.20;0.10;;;9.60;99.90;;;;;;5081141;28;20437;-83
2021/12/13 07:48:35;;;;;;;0.10;0.10;;;9.50;99.90;;;;;;5081996;28;20491;-83
2021/12/13 07:51:28;;;;;;;0.60;0.55;;;9.60;99.90;;;;;;5081519;28;20066;-83
2021/12/13 07:53:57;;;;;;;0.30;0.30;;;9.50;99.90;;;;;;5082088;28;20077;-83
2021/12/13 07:56:39;;;;;;;0.30;0.30;;;9.50;99.90;;;;;;5098277;28;20478;-83
2021/12/13 07:59:27;;;;;;;0.20;0.00;;;9.50;99.90;;;;;;5098469;28;20584;-83
2021/12/13 08:02:07;;;;;;;0.00;0.00;;;9.50;99.90;;;;;;5098747;28;20383;-82
2021/12/13 08:04:35;;;;;;;1.13;0.10;;;9.50;99.90;;;;;;5098209;28;20047;-82
2021/12/13 08:07:19;;;;;;;0.75;0.45;;;9.50;99.90;;;;;;5097651;28;20100;-83
2021/12/13 08:09:52;;;;;;;1.08;0.95;;;9.50;99.90;;;;;;5098286;28;20047;-83
2021/12/13 08:12:23;;;;;;;0.55;0.55;;;9.50;99.90;;;;;;5098388;28;20040;-82
2021/12/13 08:14:52;;;;;;;0.30;0.30;;;9.50;99.90;;;;;;5098288;28;20074;-83
2021/12/13 08:17:29;;;;;;;0.28;0.28;;;9.50;99.90;;;;;;5098631;28;20051;-82
2021/12/13 08:20:04;;;;;;;0.93;0.85;;;9.50;99.90;;;;;;5098137;28;20055;-83
2021/12/13 08:22:31;;;;;;;0.73;0.20;;;9.50;99.90;;;;;;5081859;28;20133;-83
2021/12/13 08:25:07;;;;;;;0.65;0.65;;;9.50;99.90;;;;;;5080455;28;20051;-83
2021/12/13 08:27:41;;;;;;;3.20;1.33;;;9.50;99.90;;;;;;5080374;28;20053;-82
2021/12/13 08:30:12;;;;;;;1.30;0.30;;;9.50;99.90;;;;;;5097124;28;20135;-83
2021/12/13 08:33:01;;;;;;;0.32;0.32;;;9.50;99.90;;;;;;5097423;28;20043;-82
2021/12/13 08:35:44;;;;;;;0.00;0.00;;;9.50;99.90;;;;;;5079860;28;20143;-83
2021/12/13 08:38:11;;;;;;;1.40;0.50;;;9.50;99.90;;;;;;5079997;28;20105;-82
2021/12/13 08:40:36;;;;;;;0.40;0.40;;;9.50;99.90;;;;;;5096671;28;20056;-83
2021/12/13 08:43:02;;;;;;;1.90;0.43;;;9.60;99.90;;;;;;5080305;28;20036;-83
2021/12/13 08:45:39;;;;;;;2.10;0.52;;;9.50;99.90;;;;;;5097358;28;20134;-82
2021/12/13 08:48:12;;;;;;;0.90;0.30;;;9.60;99.90;;;;;;5080045;28;20043;-82
2021/12/13 08:50:49;;;;;;;3.42;0.80;;;9.60;99.90;;;;;;5079978;28;20402;-82
2021/12/13 08:53:30;;;;;;;0.75;0.60;;;9.60;99.90;;;;;;5079920;28;20058;-83
2021/12/13 08:56:00;;;;;;;1.20;0.65;;;9.60;99.90;;;;;;5080204;28;20048;-82
2021/12/13 08:58:27;;;;;;;0.20;0.20;;;9.60;99.90;;;;;;5080010;28;20082;-82
2021/12/13 09:01:10;;;;;;;0.10;0.10;;;9.60;99.90;;;;;;5079920;28;20044;-82
2021/12/13 09:03:46;;;;;;;0.22;0.22;;;9.60;99.90;;;;;;5079673;28;20047;-82
2021/12/13 09:06:17;;;;;;;0.55;0.55;;;9.60;99.90;;;;;;5079531;28;20040;-82
2021/12/13 09:08:51;;;;;;;0.52;0.52;;;9.60;99.90;;;;;;5079199;28;20043;-82
2021/12/13 09:11:19;;;;;;;2.85;0.80;;;9.60;99.90;;;;;;5096525;28;20077;-83
2021/12/13 09:13:53;;;;;;;0.57;0.57;;;9.60;99.90;;;;;;5079743;28;20047;-83
2021/12/13 09:16:45;;;;;;;0.38;0.30;;;9.50;99.90;;;;;;5079331;28;20569;-83
2021/12/13 09:19:31;;;;;;;1.13;0.73;;;9.50;99.90;;;;;;5096058;28;20047;-83
2021/12/13 09:22:09;;;;;;;0.73;0.40;;;9.60;99.90;;;;;;5079679;28;20454;-83
2021/12/13 09:24:40;;;;;;;0.03;0.03;;;9.60;99.90;;;;;;5079243;28;20096;-82
2021/12/13 09:27:23;;;;;;;0.10;0.10;;;9.70;99.90;;;;;;5079205;28;20098;-83
2021/12/13 09:30:10;;;;;;;3.00;1.25;;;9.60;99.90;;;;;;5096116;28;20517;-83
2021/12/13 09:32:41;;;;;;;0.73;0.63;;;9.60;99.90;;;;;;5079272;28;20081;-83
2021/12/13 09:35:34;;;;;;;1.10;0.20;;;9.60;99.90;;;;;;5096543;28;20126;-83
2021/12/13 09:38:19;;;;;;;1.05;0.57;;;9.60;99.90;;;;;;5096035;28;20063;-83
2021/12/13 09:40:49;;;;;;;0.68;0.22;;;9.60;99.90;;;;;;5079438;28;20051;-83
2021/12/13 09:43:17;;;;;;;0.88;0.40;;;9.60;99.90;;;;;;5079139;28;20039;-82
2021/12/13 09:45:48;;;;;;;1.73;0.57;;;9.70;99.90;;;;;;5079553;28;20052;-82
2021/12/13 09:48:25;;;;;;;0.43;0.43;;;9.60;99.90;;;;;;5079302;28;20144;-82
2021/12/13 09:50:55;;;;;;;1.65;0.47;;;9.60;99.90;;;;;;5079332;28;20497;-82
2021/12/13 09:53:25;;;;;;;0.95;0.73;;;9.60;99.90;;;;;;5079445;28;20104;-82
2021/12/13 09:55:52;;;;;;;0.25;0.05;;;10.20;99.90;;;;;;5095807;28;20050;-83
2021/12/13 09:58:22;;;;;;;0.15;0.08;;;9.70;99.90;;;;;;5096846;28;20039;-83
2021/12/13 10:00:54;;;;;;;0.40;0.22;;;9.70;99.90;;;;;;5096340;28;20055;-82
2021/12/13 10:03:26;;;;;;;0.20;0.20;;;9.70;99.90;;;;;;5079201;28;20138;-83
2021/12/13 10:05:55;;;;;;;0.45;0.45;;;9.70;99.90;;;;;;5079174;28;20055;-84
2021/12/13 10:08:55;;;;;;;3.03;0.93;;;9.70;99.90;;;;;;5094829;28;20027;-83
2021/12/13 10:11:31;;;;;;;0.10;0.10;;;9.70;99.90;;;;;;5096344;28;20556;-82
2021/12/13 10:13:57;;;;;;;0.50;0.00;;;9.70;99.90;;;;;;5117177;27;20039;-82
2021/12/13 10:16:28;;;;;;;0.68;0.25;;;9.70;99.90;;;;;;5119999;27;20112;-83
2021/12/13 10:18:55;;;;;;;0.35;0.10;;;9.70;99.90;;;;;;5120137;27;20051;-83
2021/12/13 10:21:31;;;;;;;0.52;0.32;;;9.70;99.90;;;;;;5103632;27;20062;-82
2021/12/13 10:24:03;;;;;;;0.00;0.00;;;9.70;99.90;;;;;;5103070;27;20059;-83
2021/12/13 10:26:36;;;;;;;0.15;0.10;;;9.70;99.90;;;;;;5082847;28;20047;-82
2021/12/13 10:29:05;;;;;;;0.20;0.20;;;9.80;99.90;;;;;;5082208;28;20097;-82
2021/12/13 10:31:46;;;;;;;0.08;0.08;;;10.30;99.90;;;;;;5082590;28;20048;-83
2021/12/13 10:34:19;;;;;;;0.22;0.22;;;9.80;99.90;;;;;;5082328;28;20047;-83
2021/12/13 10:36:56;;;;;;;1.15;0.60;;;9.80;99.90;;;;;;5082409;28;20043;-83
2021/12/13 10:39:32;;;;;;;1.40;1.08;;;9.80;99.90;;;;;;5082222;28;20059;-83
2021/12/13 10:42:05;;;;;;;0.55;0.30;;;9.90;99.90;;;;;;5082331;28;20470;-83
2021/12/13 10:44:31;;;;;;;0.00;0.00;;;9.80;99.90;;;;;;5082303;28;20139;-82
2021/12/13 10:47:07;;;;;;;1.05;0.73;;;9.90;99.90;;;;;;5097777;28;20081;-82
2021/12/13 10:49:36;;;;;;;0.00;0.00;;;9.80;99.90;;;;;;5100045;28;20039;-83
2021/12/13 10:52:07;;;;;;;0.32;0.32;;;9.90;99.90;;;;;;5091391;27;20103;-82
2021/12/13 10:54:38;;;;;;;1.35;0.50;;;9.80;99.90;;;;;;5119068;27;20050;-83
2021/12/13 10:57:15;;;;;;;1.25;0.15;;;9.90;99.90;;;;;;5102018;27;20116;-82
2021/12/13 10:59:42;;;;;;;0.10;0.00;;;9.90;99.90;;;;;;5082166;28;20066;-83
2021/12/13 11:02:16;;;;;;;0.10;0.10;;;9.90;99.90;;;;;;5098809;28;20044;-83
2021/12/13 11:04:52;;;;;;;0.38;0.38;;;9.90;99.90;;;;;;5093192;27;20397;-82
2021/12/13 11:07:18;;;;;;;0.30;0.10;;;9.90;99.90;;;;;;5102608;27;20054;-82
2021/12/13 11:09:46;;;;;;;0.00;0.00;;;10.00;99.90;;;;;;5103130;27;20047;-83
2021/12/13 11:12:32;;;;;;;0.30;0.30;;;10.00;99.90;;;;;;5119863;27;20050;-83
2021/12/13 11:15:02;;;;;;;0.65;0.32;;;10.00;99.90;;;;;;5102503;27;20050;-82
2021/12/13 11:17:32;;;;;;;0.10;0.10;;;9.90;99.90;;;;;;5103386;27;20130;-82
2021/12/13 11:20:05;;;;;;;0.15;0.15;;;9.90;99.90;;;;;;5119562;27;20059;-82
2021/12/13 11:22:32;;;;;;;0.30;0.15;;;9.90;99.90;;;;;;5102762;27;20175;-83
2021/12/13 11:25:36;;;;;;;0.10;0.10;;;9.80;99.90;;;;;;5102275;27;20035;-83
2021/12/13 11:28:02;;;;;;;3.72;0.30;;;9.90;99.90;;;;;;5098156;27;20596;-82
2021/12/13 11:30:31;;;;;;;0.85;0.35;;;9.90;99.90;;;;;;5119537;27;20559;-82
2021/12/13 11:32:57;;;;;;;0.08;0.08;;;9.90;99.90;;;;;;5102460;27;20058;-82
2021/12/13 11:35:53;;;;;;;0.05;0.00;;;9.90;99.90;;;;;;5102112;27;20043;-82
2021/12/13 11:39:01;;;;;;;2.75;1.10;;;9.90;99.90;;;;;;5078519;28;20059;-81
2021/12/13 11:42:09;;;;;;;0.60;0.40;;;9.90;99.90;;;;;;5078730;28;20403;-82
2021/12/13 11:45:02;;;;;;;0.03;0.00;;;9.90;99.90;;;;;;5052442;28;20057;-82
2021/12/13 11:48:01;;;;;;;2.08;0.40;;;9.90;99.90;;;;;;5054017;28;20098;-82
2021/12/13 11:50:58;;;;;;;0.00;0.00;;;9.90;99.90;;;;;;5037491;28;20075;-82
2021/12/13 11:53:43;;;;;;;0.68;0.08;;;9.90;99.90;;;;;;5054025;28;20052;-83
2021/12/13 11:56:37;;;;;;;0.70;0.32;;;9.90;99.90;;;;;;5021209;28;20055;-82
2021/12/13 11:59:39;;;;;;;0.10;0.10;;;10.00;99.90;;;;;;4959320;28;20050;-81
2021/12/13 12:02:35;;;;;;;0.35;0.10;;;10.00;99.90;;;;;;4959015;28;20051;-82
2021/12/13 12:05:38;;;;;;;0.15;0.15;;;10.00;99.90;;;;;;4967260;28;20142;-82
2021/12/13 12:08:25;;;;;;;0.20;0.10;;;10.00;99.90;;;;;;4978046;28;20141;-82
2021/12/13 12:11:18;;;;;;;0.45;0.32;;;10.00;99.90;;;;;;4994111;28;20112;-81
2021/12/13 12:14:02;;;;;;;0.65;0.55;;;9.90;99.90;;;;;;4994297;28;20065;-82
2021/12/13 12:16:28;;;;;;;0.43;0.43;;;9.90;99.90;;;;;;4978994;28;20059;-82
2021/12/13 12:18:56;;;;;;;0.00;0.00;;;9.90;99.90;;;;;;4959136;28;20054;-82
2021/12/13 12:21:46;;;;;;;1.73;0.10;;;10.00;99.90;;;;;;4993514;28;20440;-82
2021/12/13 12:24:11;;;;;;;0.60;0.60;;;10.00;99.90;;;;;;4999919;28;20065;-82
2021/12/13 12:26:38;;;;;;;0.00;0.00;;;9.90;99.90;;;;;;4999707;28;20041;-83
2021/12/13 12:29:10;;;;;;;0.40;0.00;;;10.00;99.90;;;;;;5000689;28;20164;-82
2021/12/13 12:31:42;;;;;;;0.00;0.00;;;9.90;99.90;;;;;;5016929;28;20061;-82
2021/12/13 12:34:10;;;;;;;0.10;0.00;;;10.00;99.90;;;;;;4999877;28;20045;-83
2021/12/13 12:36:57;;;;;;;0.68;0.30;;;9.90;99.90;;;;;;5069364;28;20051;-83
2021/12/13 12:39:38;;;;;;;0.65;0.10;;;10.00;99.90;;;;;;5114412;28;20108;-82
2021/12/13 12:42:22;;;;;;;0.57;0.40;;;10.00;99.90;;;;;;5097132;28;20518;-82
2021/12/13 12:44:54;;;;;;;0.30;0.17;;;10.00;99.90;;;;;;5114715;28;20124;-83
2021/12/13 12:47:36;;;;;;;0.00;0.00;;;10.00;99.90;;;;;;5096966;28;20043;-82
2021/12/13 12:50:22;;;;;;;0.70;0.35;;;10.00;99.90;;;;;;5097456;28;20047;-82
2021/12/13 12:52:56;;;;;;;0.30;0.28;;;10.00;99.90;;;;;;5097623;28;20371;-82
2021/12/13 12:55:37;;;;;;;0.17;0.17;;;10.00;99.90;;;;;;5115013;28;20074;-82
2021/12/13 12:58:18;;;;;;;0.10;0.10;;;10.00;99.90;;;;;;5097611;28;20394;-82
2021/12/13 13:00:45;;;;;;;0.00;0.00;;;10.00;99.90;;;;;;5096936;28;20054;-84
2021/12/13 13:03:25;;;;;;;0.00;0.00;;;10.00;99.90;;;;;;5112973;28;20097;-83
2021/12/13 13:05:51;;;;;;;0.05;0.03;;;10.00;99.90;;;;;;5114590;28;20051;-83
2021/12/13 13:08:33;;;;;;;0.75;0.08;;;10.00;99.90;;;;;;5114445;28;20368;-82
2021/12/13 13:14:09;;;;;;;0.00;0.00;;;10.10;99.90;;;;;;5076444;28;20059;-82
2021/12/13 13:16:41;;;;;;;1.45;0.47;;;10.00;99.90;;;;;;5075904;28;20058;-83
2021/12/13 13:19:08;;;;;;;2.63;0.20;;;10.00;99.90;;;;;;5076086;28;20059;-82
2021/12/13 13:21:44;;;;;;;0.70;0.30;;;10.10;99.90;;;;;;5075806;28;20052;-82
2021/12/13 13:24:12;;;;;;;0.43;0.15;;;10.10;99.90;;;;;;5059838;28;20393;-82
2021/12/13 13:26:42;;;;;;;0.00;0.00;;;10.10;99.90;;;;;;5059328;28;20044;-82
2021/12/13 13:29:12;;;;;;;0.08;0.00;;;9.90;99.90;;;;;;5059264;28;20553;-82
2021/12/13 13:32:09;;;;;;;1.75;0.20;;;10.10;99.90;;;;;;5058979;28;20052;-82
2021/12/13 13:34:38;;;;;;;0.30;0.30;;;10.00;99.90;;;;;;5058102;28;20547;-82
2021/12/13 13:37:10;;;;;;;0.00;0.00;;;10.10;99.90;;;;;;5077869;28;20070;-82
2021/12/13 13:39:43;;;;;;;0.20;0.20;;;10.10;99.90;;;;;;5078529;28;20060;-82
2021/12/13 13:42:19;;;;;;;1.27;0.43;;;9.90;99.90;;;;;;5095832;28;20494;-82
2021/12/13 13:44:51;;;;;;;0.10;0.00;;;10.00;99.90;;;;;;5078538;28;20060;-82
2021/12/13 13:47:24;;;;;;;0.20;0.20;;;10.10;99.90;;;;;;5078257;28;20047;-82